Startpagina
METAR-TAF:

METAR-TAF

Vliegvelden :

Tete, Mozambique

breedte: 16-06S, lengte: 033-38E, hoogte: 160 m

Actueel weer

Dit bericht is 46 minuten geleden gemaakt, om 04:00 UTC
Wind 4 kt uit het zuidoosten, variërend tussen het oosten en het zuiden
Temperatuur 28°C
Vochtigheid 66%
Druk 1009 hPa
Zicht 10 km of meer
Verspreide wolken op 2000 ft
Gebroken wolken op 10000 ft

METAR: FQTT 090400Z 14004KT 090V170 9999 SCT020 BKN100 28/21 Q1009

Tijdstip: 06:46 (04:46 UTC)

Verwachting

Dit bericht is 6 uur en het 46 minuten geleden gemaakt, om 22:00 UTC
Verwachting geldig van 09 om 00 UTC tot 09 om 24 UTC
Wind 10 kt uit het oostzuidoosten
Zicht 10 km of meer
Verspreide wolken op 2000 ft
Wijzigt naar
van 09 om 06 UTC tot 09 om 08 UTC
Wind 2 kt uit variabele richting
Wijzigt naar
van 09 om 12 UTC tot 09 om 14 UTC
Wind 8 kt uit het oosten

TAF: FQTT 082200Z 0900/0924 11010KT 9999 SCT020 TX37/0913Z TN25/0903Z BECMG 0906/0908 VRB02KT BECMG 0912/0914 08008KT

Waarnemingen en weersverwachtingen van meer dan 4000 vliegvelden (METAR en TAF).

De beschikbare stations zijn de gele en rode punten op de kaart.

Ga met uw muis naar het station om de naam te zien.

Klik dan om waarnemingen en weersverwachtingen te zien.

kaart wijzigen: klik op de groene knoppen met een zwart kruis om in te zoomen, op de groene knop met een streepje om uit te zoomen of op de groene pijlen voor aangrenzende kaarten.


METAR-TAF: